sensor_id;sensor_type;location;lat;lon;timestamp;P1;durP1;ratioP1;P2;durP2;ratioP2
26718;SDS011;14326;50.794;6.060;2023-12-29T00:00:19;15.43;;;2.20;;
26718;SDS011;14326;50.794;6.060;2023-12-29T00:02:45;13.88;;;1.95;;
26718;SDS011;14326;50.794;6.060;2023-12-29T00:05:12;8.80;;;1.80;;
26718;SDS011;14326;50.794;6.060;2023-12-29T00:07:38;16.05;;;2.38;;
26718;SDS011;14326;50.794;6.060;2023-12-29T00:10:06;16.17;;;2.00;;
26718;SDS011;14326;50.794;6.060;2023-12-29T00:12:33;15.50;;;2.35;;
26718;SDS011;14326;50.794;6.060;2023-12-29T00:14:59;13.23;;;2.00;;
26718;SDS011;14326;50.794;6.060;2023-12-29T00:17:26;13.98;;;2.35;;
26718;SDS011;14326;50.794;6.060;2023-12-29T00:19:53;12.15;;;2.25;;
26718;SDS011;14326;50.794;6.060;2023-12-29T00:22:19;14.18;;;2.70;;
26718;SDS011;14326;50.794;6.060;2023-12-29T00:24:46;12.18;;;2.50;;
26718;SDS011;14326;50.794;6.060;2023-12-29T00:27:14;11.15;;;2.05;;
26718;SDS011;14326;50.794;6.060;2023-12-29T00:29:40;14.20;;;2.40;;
26718;SDS011;14326;50.794;6.060;2023-12-29T00:32:07;16.85;;;2.28;;
26718;SDS011;14326;50.794;6.060;2023-12-29T00:34:34;11.75;;;2.70;;
26718;SDS011;14326;50.794;6.060;2023-12-29T00:37:02;18.23;;;2.60;;
26718;SDS011;14326;50.794;6.060;2023-12-29T00:39:30;19.15;;;3.22;;
26718;SDS011;14326;50.794;6.060;2023-12-29T00:42:03;16.48;;;2.25;;
26718;SDS011;14326;50.794;6.060;2023-12-29T00:44:31;13.15;;;2.35;;
26718;SDS011;14326;50.794;6.060;2023-12-29T00:46:58;14.95;;;2.58;;
26718;SDS011;14326;50.794;6.060;2023-12-29T00:49:25;12.75;;;2.17;;
26718;SDS011;14326;50.794;6.060;2023-12-29T00:51:51;16.60;;;2.45;;
26718;SDS011;14326;50.794;6.060;2023-12-29T00:54:18;11.57;;;2.50;;
26718;SDS011;14326;50.794;6.060;2023-12-29T00:56:47;14.10;;;2.13;;
26718;SDS011;14326;50.794;6.060;2023-12-29T00:59:14;11.75;;;2.35;;
26718;SDS011;14326;50.794;6.060;2023-12-29T01:01:42;16.58;;;2.63;;
26718;SDS011;14326;50.794;6.060;2023-12-29T01:04:09;14.63;;;2.40;;
26718;SDS011;14326;50.794;6.060;2023-12-29T01:06:36;13.70;;;2.85;;
26718;SDS011;14326;50.794;6.060;2023-12-29T01:09:02;15.43;;;2.90;;
26718;SDS011;14326;50.794;6.060;2023-12-29T01:11:28;19.13;;;3.05;;
26718;SDS011;14326;50.794;6.060;2023-12-29T01:13:55;12.15;;;2.50;;
26718;SDS011;14326;50.794;6.060;2023-12-29T01:16:22;12.30;;;2.60;;
26718;SDS011;14326;50.794;6.060;2023-12-29T01:18:50;15.18;;;3.28;;
26718;SDS011;14326;50.794;6.060;2023-12-29T01:21:16;13.95;;;2.53;;
26718;SDS011;14326;50.794;6.060;2023-12-29T01:23:43;14.93;;;2.50;;
26718;SDS011;14326;50.794;6.060;2023-12-29T01:26:09;14.38;;;2.70;;
26718;SDS011;14326;50.794;6.060;2023-12-29T01:28:35;16.73;;;3.20;;
26718;SDS011;14326;50.794;6.060;2023-12-29T01:31:02;14.13;;;3.20;;
26718;SDS011;14326;50.794;6.060;2023-12-29T01:33:28;12.85;;;2.95;;
26718;SDS011;14326;50.794;6.060;2023-12-29T01:35:56;19.30;;;3.20;;
26718;SDS011;14326;50.794;6.060;2023-12-29T01:38:22;12.90;;;2.50;;
26718;SDS011;14326;50.794;6.060;2023-12-29T01:40:49;15.50;;;2.85;;
26718;SDS011;14326;50.794;6.060;2023-12-29T01:43:15;17.50;;;2.70;;
26718;SDS011;14326;50.794;6.060;2023-12-29T01:45:41;13.57;;;2.72;;
26718;SDS011;14326;50.794;6.060;2023-12-29T01:48:08;19.05;;;2.67;;
26718;SDS011;14326;50.794;6.060;2023-12-29T01:50:35;17.27;;;2.90;;
26718;SDS011;14326;50.794;6.060;2023-12-29T01:53:03;13.88;;;2.28;;
26718;SDS011;14326;50.794;6.060;2023-12-29T01:55:29;12.00;;;2.50;;
26718;SDS011;14326;50.794;6.060;2023-12-29T01:57:56;12.98;;;2.35;;
26718;SDS011;14326;50.794;6.060;2023-12-29T02:00:23;12.75;;;2.67;;
26718;SDS011;14326;50.794;6.060;2023-12-29T02:02:49;19.33;;;2.67;;
26718;SDS011;14326;50.794;6.060;2023-12-29T02:05:17;17.45;;;2.72;;
26718;SDS011;14326;50.794;6.060;2023-12-29T02:07:43;13.23;;;2.20;;
26718;SDS011;14326;50.794;6.060;2023-12-29T02:10:11;13.05;;;2.40;;
26718;SDS011;14326;50.794;6.060;2023-12-29T02:12:40;15.02;;;3.05;;
26718;SDS011;14326;50.794;6.060;2023-12-29T02:15:07;16.35;;;2.60;;
26718;SDS011;14326;50.794;6.060;2023-12-29T02:17:36;8.80;;;2.22;;
26718;SDS011;14326;50.794;6.060;2023-12-29T02:20:04;11.77;;;2.58;;
26718;SDS011;14326;50.794;6.060;2023-12-29T02:22:31;15.52;;;2.85;;
26718;SDS011;14326;50.794;6.060;2023-12-29T02:24:59;15.82;;;2.70;;
26718;SDS011;14326;50.794;6.060;2023-12-29T02:27:28;13.85;;;2.53;;
26718;SDS011;14326;50.794;6.060;2023-12-29T02:30:01;14.95;;;3.22;;
26718;SDS011;14326;50.794;6.060;2023-12-29T02:32:30;11.80;;;2.40;;
26718;SDS011;14326;50.794;6.060;2023-12-29T02:34:57;12.23;;;2.17;;
26718;SDS011;14326;50.794;6.060;2023-12-29T02:37:25;15.85;;;2.67;;
26718;SDS011;14326;50.794;6.060;2023-12-29T02:39:52;12.20;;;2.40;;
26718;SDS011;14326;50.794;6.060;2023-12-29T02:42:20;12.48;;;2.55;;
26718;SDS011;14326;50.794;6.060;2023-12-29T02:44:46;14.80;;;2.67;;
26718;SDS011;14326;50.794;6.060;2023-12-29T02:47:13;14.63;;;2.17;;
26718;SDS011;14326;50.794;6.060;2023-12-29T02:49:39;19.65;;;2.42;;
26718;SDS011;14326;50.794;6.060;2023-12-29T02:52:06;15.38;;;2.63;;
26718;SDS011;14326;50.794;6.060;2023-12-29T02:54:32;12.18;;;2.92;;
26718;SDS011;14326;50.794;6.060;2023-12-29T02:56:58;14.23;;;2.58;;
26718;SDS011;14326;50.794;6.060;2023-12-29T02:59:26;16.50;;;2.72;;
26718;SDS011;14326;50.794;6.060;2023-12-29T03:01:52;15.43;;;3.00;;
26718;SDS011;14326;50.794;6.060;2023-12-29T03:04:19;12.63;;;2.22;;
26718;SDS011;14326;50.794;6.060;2023-12-29T03:06:45;13.05;;;2.72;;
26718;SDS011;14326;50.794;6.060;2023-12-29T03:09:12;8.75;;;2.08;;
26718;SDS011;14326;50.794;6.060;2023-12-29T03:11:38;13.40;;;2.22;;
26718;SDS011;14326;50.794;6.060;2023-12-29T03:14:04;16.63;;;2.53;;
26718;SDS011;14326;50.794;6.060;2023-12-29T03:16:32;16.83;;;3.33;;
26718;SDS011;14326;50.794;6.060;2023-12-29T03:18:58;8.95;;;2.13;;
26718;SDS011;14326;50.794;6.060;2023-12-29T03:21:25;18.40;;;2.22;;
26718;SDS011;14326;50.794;6.060;2023-12-29T03:23:51;12.82;;;2.25;;
26718;SDS011;14326;50.794;6.060;2023-12-29T03:26:20;15.65;;;2.75;;
26718;SDS011;14326;50.794;6.060;2023-12-29T03:28:46;14.73;;;2.38;;
26718;SDS011;14326;50.794;6.060;2023-12-29T03:31:12;11.55;;;2.47;;
26718;SDS011;14326;50.794;6.060;2023-12-29T03:33:40;18.27;;;2.70;;
26718;SDS011;14326;50.794;6.060;2023-12-29T03:36:07;12.77;;;2.30;;
26718;SDS011;14326;50.794;6.060;2023-12-29T03:38:34;12.60;;;2.65;;
26718;SDS011;14326;50.794;6.060;2023-12-29T03:41:01;13.48;;;2.40;;
26718;SDS011;14326;50.794;6.060;2023-12-29T03:43:27;16.00;;;1.98;;
26718;SDS011;14326;50.794;6.060;2023-12-29T03:45:54;11.30;;;1.92;;
26718;SDS011;14326;50.794;6.060;2023-12-29T03:48:20;13.23;;;2.78;;
26718;SDS011;14326;50.794;6.060;2023-12-29T03:50:48;10.00;;;2.42;;
26718;SDS011;14326;50.794;6.060;2023-12-29T03:53:14;11.98;;;1.67;;
26718;SDS011;14326;50.794;6.060;2023-12-29T03:55:41;14.85;;;2.55;;
26718;SDS011;14326;50.794;6.060;2023-12-29T03:58:07;20.75;;;2.47;;
26718;SDS011;14326;50.794;6.060;2023-12-29T04:00:34;8.57;;;1.90;;
26718;SDS011;14326;50.794;6.060;2023-12-29T04:03:01;11.45;;;2.22;;
26718;SDS011;14326;50.794;6.060;2023-12-29T04:05:27;15.13;;;2.45;;
26718;SDS011;14326;50.794;6.060;2023-12-29T04:07:55;14.48;;;2.20;;
26718;SDS011;14326;50.794;6.060;2023-12-29T04:10:21;15.27;;;2.00;;
26718;SDS011;14326;50.794;6.060;2023-12-29T04:12:47;15.88;;;2.13;;
26718;SDS011;14326;50.794;6.060;2023-12-29T04:15:14;15.45;;;2.70;;
26718;SDS011;14326;50.794;6.060;2023-12-29T04:17:40;17.63;;;3.28;;
26718;SDS011;14326;50.794;6.060;2023-12-29T04:20:07;19.52;;;2.55;;
26718;SDS011;14326;50.794;6.060;2023-12-29T04:22:33;6.93;;;1.92;;
26718;SDS011;14326;50.794;6.060;2023-12-29T04:25:01;10.43;;;1.90;;
26718;SDS011;14326;50.794;6.060;2023-12-29T04:27:28;20.90;;;2.35;;
26718;SDS011;14326;50.794;6.060;2023-12-29T04:29:54;15.23;;;2.42;;
26718;SDS011;14326;50.794;6.060;2023-12-29T04:32:20;19.80;;;2.40;;
26718;SDS011;14326;50.794;6.060;2023-12-29T04:34:47;14.02;;;2.30;;
26718;SDS011;14326;50.794;6.060;2023-12-29T04:37:13;14.00;;;2.58;;
26718;SDS011;14326;50.794;6.060;2023-12-29T04:39:39;15.20;;;2.40;;
26718;SDS011;14326;50.794;6.060;2023-12-29T04:42:07;17.33;;;2.03;;
26718;SDS011;14326;50.794;6.060;2023-12-29T04:44:34;10.93;;;2.20;;
26718;SDS011;14326;50.794;6.060;2023-12-29T04:47:00;15.55;;;2.92;;
26718;SDS011;14326;50.794;6.060;2023-12-29T04:49:26;15.10;;;1.90;;
26718;SDS011;14326;50.794;6.060;2023-12-29T04:51:53;13.60;;;2.35;;
26718;SDS011;14326;50.794;6.060;2023-12-29T04:54:19;15.50;;;2.05;;
26718;SDS011;14326;50.794;6.060;2023-12-29T04:56:45;25.85;;;2.72;;
26718;SDS011;14326;50.794;6.060;2023-12-29T04:59:13;13.93;;;2.20;;
26718;SDS011;14326;50.794;6.060;2023-12-29T05:01:40;16.20;;;2.33;;
26718;SDS011;14326;50.794;6.060;2023-12-29T05:04:06;10.30;;;1.95;;
26718;SDS011;14326;50.794;6.060;2023-12-29T05:06:32;11.75;;;2.33;;
26718;SDS011;14326;50.794;6.060;2023-12-29T05:08:59;13.35;;;1.80;;
26718;SDS011;14326;50.794;6.060;2023-12-29T05:11:25;12.35;;;2.13;;
26718;SDS011;14326;50.794;6.060;2023-12-29T05:13:51;17.10;;;2.72;;
26718;SDS011;14326;50.794;6.060;2023-12-29T05:16:19;10.98;;;1.75;;
26718;SDS011;14326;50.794;6.060;2023-12-29T05:18:46;12.30;;;2.05;;
26718;SDS011;14326;50.794;6.060;2023-12-29T05:21:15;8.05;;;1.73;;
26718;SDS011;14326;50.794;6.060;2023-12-29T05:23:41;13.00;;;2.23;;
26718;SDS011;14326;50.794;6.060;2023-12-29T05:26:08;13.45;;;1.88;;
26718;SDS011;14326;50.794;6.060;2023-12-29T05:28:34;10.90;;;1.95;;
26718;SDS011;14326;50.794;6.060;2023-12-29T05:31:01;12.73;;;1.90;;
26718;SDS011;14326;50.794;6.060;2023-12-29T05:33:30;8.70;;;1.73;;
26718;SDS011;14326;50.794;6.060;2023-12-29T05:35:56;15.65;;;2.45;;
26718;SDS011;14326;50.794;6.060;2023-12-29T05:38:23;10.95;;;1.60;;
26718;SDS011;14326;50.794;6.060;2023-12-29T05:40:49;12.23;;;1.80;;
26718;SDS011;14326;50.794;6.060;2023-12-29T05:43:16;11.80;;;2.22;;
26718;SDS011;14326;50.794;6.060;2023-12-29T05:45:42;9.63;;;1.90;;
26718;SDS011;14326;50.794;6.060;2023-12-29T05:48:09;10.93;;;2.15;;
26718;SDS011;14326;50.794;6.060;2023-12-29T05:50:37;15.40;;;2.70;;
26718;SDS011;14326;50.794;6.060;2023-12-29T05:53:04;6.80;;;1.95;;
26718;SDS011;14326;50.794;6.060;2023-12-29T05:55:31;12.85;;;2.03;;
26718;SDS011;14326;50.794;6.060;2023-12-29T05:57:57;11.07;;;2.05;;
26718;SDS011;14326;50.794;6.060;2023-12-29T06:00:24;17.80;;;2.63;;
26718;SDS011;14326;50.794;6.060;2023-12-29T06:02:50;12.50;;;2.10;;
26718;SDS011;14326;50.794;6.060;2023-12-29T06:05:17;10.30;;;1.85;;
26718;SDS011;14326;50.794;6.060;2023-12-29T06:07:44;14.13;;;2.42;;
26718;SDS011;14326;50.794;6.060;2023-12-29T06:10:11;13.35;;;2.10;;
26718;SDS011;14326;50.794;6.060;2023-12-29T06:12:37;13.85;;;2.55;;
26718;SDS011;14326;50.794;6.060;2023-12-29T06:15:04;14.45;;;2.13;;
26718;SDS011;14326;50.794;6.060;2023-12-29T06:17:30;10.02;;;1.80;;
26718;SDS011;14326;50.794;6.060;2023-12-29T06:19:57;15.73;;;2.08;;
26718;SDS011;14326;50.794;6.060;2023-12-29T06:22:25;14.93;;;2.45;;
26718;SDS011;14326;50.794;6.060;2023-12-29T06:24:53;9.43;;;1.92;;
26718;SDS011;14326;50.794;6.060;2023-12-29T06:27:20;13.02;;;2.22;;
26718;SDS011;14326;50.794;6.060;2023-12-29T06:29:46;10.60;;;1.83;;
26718;SDS011;14326;50.794;6.060;2023-12-29T06:32:13;11.90;;;2.00;;
26718;SDS011;14326;50.794;6.060;2023-12-29T06:34:40;10.68;;;1.67;;
26718;SDS011;14326;50.794;6.060;2023-12-29T06:37:06;11.57;;;1.98;;
26718;SDS011;14326;50.794;6.060;2023-12-29T06:39:33;12.63;;;2.05;;
26718;SDS011;14326;50.794;6.060;2023-12-29T06:42:01;10.60;;;1.80;;
26718;SDS011;14326;50.794;6.060;2023-12-29T06:44:27;11.75;;;1.95;;
26718;SDS011;14326;50.794;6.060;2023-12-29T06:46:54;9.23;;;1.77;;
26718;SDS011;14326;50.794;6.060;2023-12-29T06:49:20;15.05;;;2.10;;
26718;SDS011;14326;50.794;6.060;2023-12-29T06:51:47;10.35;;;1.63;;
26718;SDS011;14326;50.794;6.060;2023-12-29T06:54:13;8.60;;;1.83;;
26718;SDS011;14326;50.794;6.060;2023-12-29T06:56:40;10.20;;;1.77;;
26718;SDS011;14326;50.794;6.060;2023-12-29T06:59:07;10.07;;;1.80;;
26718;SDS011;14326;50.794;6.060;2023-12-29T07:01:35;16.13;;;2.28;;
26718;SDS011;14326;50.794;6.060;2023-12-29T07:06:31;12.38;;;2.35;;
26718;SDS011;14326;50.794;6.060;2023-12-29T07:08:57;10.23;;;1.90;;
26718;SDS011;14326;50.794;6.060;2023-12-29T07:11:24;11.13;;;1.75;;
26718;SDS011;14326;50.794;6.060;2023-12-29T07:13:51;9.90;;;2.08;;
26718;SDS011;14326;50.794;6.060;2023-12-29T07:16:19;12.38;;;2.00;;
26718;SDS011;14326;50.794;6.060;2023-12-29T07:18:45;11.13;;;2.00;;
26718;SDS011;14326;50.794;6.060;2023-12-29T07:21:12;15.23;;;1.90;;
26718;SDS011;14326;50.794;6.060;2023-12-29T07:23:39;17.75;;;3.28;;
26718;SDS011;14326;50.794;6.060;2023-12-29T07:26:05;9.15;;;2.00;;
26718;SDS011;14326;50.794;6.060;2023-12-29T07:28:32;14.40;;;2.20;;
26718;SDS011;14326;50.794;6.060;2023-12-29T07:30:58;14.00;;;2.25;;
26718;SDS011;14326;50.794;6.060;2023-12-29T07:33:26;15.43;;;2.15;;
26718;SDS011;14326;50.794;6.060;2023-12-29T07:35:53;12.63;;;2.10;;
26718;SDS011;14326;50.794;6.060;2023-12-29T07:38:20;13.77;;;2.22;;
26718;SDS011;14326;50.794;6.060;2023-12-29T07:40:46;20.00;;;2.47;;
26718;SDS011;14326;50.794;6.060;2023-12-29T07:43:13;15.80;;;2.97;;
26718;SDS011;14326;50.794;6.060;2023-12-29T07:45:40;16.55;;;3.15;;
26718;SDS011;14326;50.794;6.060;2023-12-29T07:48:08;15.77;;;2.33;;
26718;SDS011;14326;50.794;6.060;2023-12-29T07:50:36;9.27;;;1.65;;
26718;SDS011;14326;50.794;6.060;2023-12-29T07:53:02;18.73;;;2.25;;
26718;SDS011;14326;50.794;6.060;2023-12-29T07:55:31;14.90;;;2.40;;
26718;SDS011;14326;50.794;6.060;2023-12-29T07:57:57;19.05;;;2.47;;
26718;SDS011;14326;50.794;6.060;2023-12-29T08:00:23;18.58;;;2.70;;
26718;SDS011;14326;50.794;6.060;2023-12-29T08:02:51;14.90;;;2.47;;
26718;SDS011;14326;50.794;6.060;2023-12-29T08:05:18;11.13;;;2.65;;
26718;SDS011;14326;50.794;6.060;2023-12-29T08:07:46;17.13;;;2.50;;
26718;SDS011;14326;50.794;6.060;2023-12-29T08:10:12;20.38;;;2.78;;
26718;SDS011;14326;50.794;6.060;2023-12-29T08:12:39;26.30;;;3.22;;
26718;SDS011;14326;50.794;6.060;2023-12-29T08:15:05;12.90;;;2.10;;
26718;SDS011;14326;50.794;6.060;2023-12-29T08:17:32;11.52;;;2.50;;
26718;SDS011;14326;50.794;6.060;2023-12-29T08:19:59;13.60;;;2.10;;
26718;SDS011;14326;50.794;6.060;2023-12-29T08:22:27;22.45;;;2.90;;
26718;SDS011;14326;50.794;6.060;2023-12-29T08:24:55;14.50;;;2.38;;
26718;SDS011;14326;50.794;6.060;2023-12-29T08:27:24;13.63;;;2.25;;
26718;SDS011;14326;50.794;6.060;2023-12-29T08:32:19;10.60;;;2.85;;
26718;SDS011;14326;50.794;6.060;2023-12-29T08:34:45;13.40;;;2.40;;
26718;SDS011;14326;50.794;6.060;2023-12-29T08:37:12;18.92;;;2.90;;
26718;SDS011;14326;50.794;6.060;2023-12-29T08:39:40;10.75;;;2.25;;
26718;SDS011;14326;50.794;6.060;2023-12-29T08:42:08;14.23;;;1.98;;
26718;SDS011;14326;50.794;6.060;2023-12-29T08:44:35;12.98;;;2.10;;
26718;SDS011;14326;50.794;6.060;2023-12-29T08:47:01;9.80;;;2.03;;
26718;SDS011;14326;50.794;6.060;2023-12-29T08:49:28;12.27;;;2.00;;
26718;SDS011;14326;50.794;6.060;2023-12-29T08:51:54;17.50;;;2.35;;
26718;SDS011;14326;50.794;6.060;2023-12-29T08:54:20;15.68;;;2.42;;
26718;SDS011;14326;50.794;6.060;2023-12-29T08:56:47;10.35;;;3.10;;
26718;SDS011;14326;50.794;6.060;2023-12-29T08:59:15;14.00;;;2.30;;
26718;SDS011;14326;50.794;6.060;2023-12-29T09:01:41;9.43;;;1.50;;
26718;SDS011;14326;50.794;6.060;2023-12-29T09:04:07;10.15;;;1.52;;
26718;SDS011;14326;50.794;6.060;2023-12-29T09:06:34;13.13;;;1.67;;
26718;SDS011;14326;50.794;6.060;2023-12-29T09:09:00;11.32;;;2.20;;
26718;SDS011;14326;50.794;6.060;2023-12-29T09:11:27;13.57;;;2.30;;
26718;SDS011;14326;50.794;6.060;2023-12-29T09:13:53;13.80;;;1.92;;
26718;SDS011;14326;50.794;6.060;2023-12-29T09:16:21;12.77;;;2.30;;
26718;SDS011;14326;50.794;6.060;2023-12-29T09:18:47;10.70;;;2.03;;
26718;SDS011;14326;50.794;6.060;2023-12-29T09:21:13;8.80;;;1.77;;
26718;SDS011;14326;50.794;6.060;2023-12-29T09:23:40;13.32;;;1.85;;
26718;SDS011;14326;50.794;6.060;2023-12-29T09:26:06;11.35;;;2.00;;
26718;SDS011;14326;50.794;6.060;2023-12-29T09:28:34;13.23;;;2.30;;
26718;SDS011;14326;50.794;6.060;2023-12-29T09:31:00;10.77;;;1.90;;
26718;SDS011;14326;50.794;6.060;2023-12-29T09:33:28;9.38;;;1.60;;
26718;SDS011;14326;50.794;6.060;2023-12-29T09:35:54;7.45;;;1.67;;
26718;SDS011;14326;50.794;6.060;2023-12-29T09:38:21;8.00;;;1.27;;
26718;SDS011;14326;50.794;6.060;2023-12-29T09:40:47;8.75;;;1.70;;
26718;SDS011;14326;50.794;6.060;2023-12-29T09:43:14;6.80;;;1.63;;
26718;SDS011;14326;50.794;6.060;2023-12-29T09:45:40;11.05;;;1.98;;
26718;SDS011;14326;50.794;6.060;2023-12-29T09:48:08;9.30;;;1.55;;
26718;SDS011;14326;50.794;6.060;2023-12-29T09:50:38;12.20;;;1.98;;
26718;SDS011;14326;50.794;6.060;2023-12-29T09:53:05;12.40;;;1.65;;
26718;SDS011;14326;50.794;6.060;2023-12-29T09:55:32;9.10;;;1.40;;
26718;SDS011;14326;50.794;6.060;2023-12-29T09:57:59;14.07;;;1.55;;
26718;SDS011;14326;50.794;6.060;2023-12-29T10:00:26;9.60;;;1.52;;
26718;SDS011;14326;50.794;6.060;2023-12-29T10:02:54;9.85;;;1.65;;
26718;SDS011;14326;50.794;6.060;2023-12-29T10:05:21;7.15;;;1.50;;
26718;SDS011;14326;50.794;6.060;2023-12-29T10:07:49;8.82;;;1.75;;
26718;SDS011;14326;50.794;6.060;2023-12-29T10:10:16;11.48;;;2.47;;
26718;SDS011;14326;50.794;6.060;2023-12-29T10:12:43;10.13;;;2.03;;
26718;SDS011;14326;50.794;6.060;2023-12-29T10:15:10;11.88;;;1.67;;
26718;SDS011;14326;50.794;6.060;2023-12-29T10:17:47;13.95;;;1.98;;
26718;SDS011;14326;50.794;6.060;2023-12-29T10:20:18;11.25;;;2.20;;
26718;SDS011;14326;50.794;6.060;2023-12-29T10:22:51;11.43;;;1.85;;
26718;SDS011;14326;50.794;6.060;2023-12-29T10:25:17;11.63;;;1.80;;
26718;SDS011;14326;50.794;6.060;2023-12-29T10:27:45;8.40;;;1.50;;
26718;SDS011;14326;50.794;6.060;2023-12-29T10:30:11;9.23;;;1.52;;
26718;SDS011;14326;50.794;6.060;2023-12-29T10:32:38;18.63;;;1.80;;
26718;SDS011;14326;50.794;6.060;2023-12-29T10:35:07;8.13;;;1.38;;
26718;SDS011;14326;50.794;6.060;2023-12-29T10:40:03;17.20;;;2.40;;
26718;SDS011;14326;50.794;6.060;2023-12-29T10:42:29;13.43;;;1.88;;
26718;SDS011;14326;50.794;6.060;2023-12-29T10:45:05;5.75;;;1.20;;
26718;SDS011;14326;50.794;6.060;2023-12-29T10:47:32;7.97;;;1.70;;
26718;SDS011;14326;50.794;6.060;2023-12-29T10:49:58;7.82;;;1.38;;
26718;SDS011;14326;50.794;6.060;2023-12-29T10:52:25;9.90;;;1.60;;
26718;SDS011;14326;50.794;6.060;2023-12-29T10:54:54;9.98;;;1.50;;
26718;SDS011;14326;50.794;6.060;2023-12-29T10:57:31;7.80;;;1.77;;
26718;SDS011;14326;50.794;6.060;2023-12-29T10:59:57;7.63;;;1.50;;
26718;SDS011;14326;50.794;6.060;2023-12-29T11:02:25;11.00;;;1.70;;
26718;SDS011;14326;50.794;6.060;2023-12-29T11:04:51;13.20;;;2.45;;
26718;SDS011;14326;50.794;6.060;2023-12-29T11:07:20;10.15;;;1.75;;
26718;SDS011;14326;50.794;6.060;2023-12-29T11:09:59;8.95;;;1.50;;
26718;SDS011;14326;50.794;6.060;2023-12-29T11:12:26;8.88;;;1.45;;
26718;SDS011;14326;50.794;6.060;2023-12-29T11:14:53;10.07;;;2.08;;
26718;SDS011;14326;50.794;6.060;2023-12-29T11:17:20;12.00;;;1.60;;
26718;SDS011;14326;50.794;6.060;2023-12-29T11:19:47;10.70;;;1.65;;
26718;SDS011;14326;50.794;6.060;2023-12-29T11:22:13;9.48;;;1.80;;
26718;SDS011;14326;50.794;6.060;2023-12-29T11:24:40;8.85;;;1.58;;
26718;SDS011;14326;50.794;6.060;2023-12-29T11:27:07;6.78;;;1.55;;
26718;SDS011;14326;50.794;6.060;2023-12-29T11:29:33;6.75;;;1.58;;
26718;SDS011;14326;50.794;6.060;2023-12-29T11:32:01;10.95;;;1.63;;
26718;SDS011;14326;50.794;6.060;2023-12-29T11:34:30;6.70;;;1.58;;
26718;SDS011;14326;50.794;6.060;2023-12-29T11:37:00;10.60;;;1.50;;
26718;SDS011;14326;50.794;6.060;2023-12-29T11:39:30;5.22;;;1.10;;
26718;SDS011;14326;50.794;6.060;2023-12-29T11:42:03;2.83;;;1.10;;
26718;SDS011;14326;50.794;6.060;2023-12-29T11:44:31;5.35;;;1.10;;
26718;SDS011;14326;50.794;6.060;2023-12-29T11:46:58;6.70;;;1.10;;
26718;SDS011;14326;50.794;6.060;2023-12-29T11:49:26;9.15;;;1.30;;
26718;SDS011;14326;50.794;6.060;2023-12-29T11:51:53;8.82;;;1.48;;
26718;SDS011;14326;50.794;6.060;2023-12-29T11:54:22;5.30;;;1.27;;
26718;SDS011;14326;50.794;6.060;2023-12-29T11:56:49;3.28;;;0.85;;
26718;SDS011;14326;50.794;6.060;2023-12-29T11:59:16;4.35;;;1.02;;
26718;SDS011;14326;50.794;6.060;2023-12-29T12:01:42;2.13;;;0.82;;
26718;SDS011;14326;50.794;6.060;2023-12-29T12:06:55;7.97;;;1.13;;
26718;SDS011;14326;50.794;6.060;2023-12-29T12:09:22;5.20;;;1.17;;
26718;SDS011;14326;50.794;6.060;2023-12-29T12:11:49;2.28;;;1.08;;
26718;SDS011;14326;50.794;6.060;2023-12-29T12:17:01;10.05;;;1.42;;
26718;SDS011;14326;50.794;6.060;2023-12-29T12:19:28;4.47;;;1.30;;
26718;SDS011;14326;50.794;6.060;2023-12-29T12:22:01;8.27;;;1.50;;
26718;SDS011;14326;50.794;6.060;2023-12-29T12:24:28;4.72;;;1.10;;
26718;SDS011;14326;50.794;6.060;2023-12-29T12:26:54;5.95;;;1.20;;
26718;SDS011;14326;50.794;6.060;2023-12-29T12:29:21;7.47;;;1.20;;
26718;SDS011;14326;50.794;6.060;2023-12-29T12:31:54;10.20;;;2.00;;
26718;SDS011;14326;50.794;6.060;2023-12-29T12:34:20;12.32;;;2.03;;
26718;SDS011;14326;50.794;6.060;2023-12-29T12:36:47;5.93;;;1.60;;
26718;SDS011;14326;50.794;6.060;2023-12-29T12:39:15;8.25;;;2.33;;
26718;SDS011;14326;50.794;6.060;2023-12-29T12:41:42;9.02;;;2.08;;
26718;SDS011;14326;50.794;6.060;2023-12-29T12:44:10;8.63;;;1.85;;
26718;SDS011;14326;50.794;6.060;2023-12-29T12:46:39;8.32;;;1.73;;
26718;SDS011;14326;50.794;6.060;2023-12-29T12:49:06;7.50;;;1.48;;
26718;SDS011;14326;50.794;6.060;2023-12-29T12:51:32;5.03;;;1.55;;
26718;SDS011;14326;50.794;6.060;2023-12-29T12:53:59;8.85;;;1.90;;
26718;SDS011;14326;50.794;6.060;2023-12-29T12:56:27;7.63;;;1.67;;
26718;SDS011;14326;50.794;6.060;2023-12-29T12:58:54;8.18;;;1.70;;
26718;SDS011;14326;50.794;6.060;2023-12-29T13:01:21;8.38;;;1.80;;
26718;SDS011;14326;50.794;6.060;2023-12-29T13:03:48;5.18;;;1.67;;
26718;SDS011;14326;50.794;6.060;2023-12-29T13:06:14;3.83;;;1.45;;
26718;SDS011;14326;50.794;6.060;2023-12-29T13:08:41;6.57;;;1.42;;
26718;SDS011;14326;50.794;6.060;2023-12-29T13:11:08;5.63;;;1.10;;
26718;SDS011;14326;50.794;6.060;2023-12-29T13:13:36;9.45;;;1.77;;
26718;SDS011;14326;50.794;6.060;2023-12-29T13:16:03;10.48;;;1.80;;
26718;SDS011;14326;50.794;6.060;2023-12-29T13:18:29;6.20;;;1.58;;
26718;SDS011;14326;50.794;6.060;2023-12-29T13:20:57;10.95;;;1.95;;
26718;SDS011;14326;50.794;6.060;2023-12-29T13:23:24;6.05;;;1.38;;
26718;SDS011;14326;50.794;6.060;2023-12-29T13:25:51;6.18;;;1.20;;
26718;SDS011;14326;50.794;6.060;2023-12-29T13:28:20;8.05;;;1.42;;
26718;SDS011;14326;50.794;6.060;2023-12-29T13:30:48;8.98;;;1.58;;
26718;SDS011;14326;50.794;6.060;2023-12-29T13:33:16;8.30;;;2.47;;
26718;SDS011;14326;50.794;6.060;2023-12-29T13:35:45;7.30;;;1.38;;
26718;SDS011;14326;50.794;6.060;2023-12-29T13:38:16;7.20;;;1.38;;
26718;SDS011;14326;50.794;6.060;2023-12-29T13:40:44;6.75;;;1.73;;
26718;SDS011;14326;50.794;6.060;2023-12-29T13:43:13;7.85;;;1.70;;
26718;SDS011;14326;50.794;6.060;2023-12-29T13:45:40;6.20;;;1.38;;
26718;SDS011;14326;50.794;6.060;2023-12-29T13:48:09;7.97;;;1.63;;
26718;SDS011;14326;50.794;6.060;2023-12-29T13:50:36;8.25;;;1.70;;
26718;SDS011;14326;50.794;6.060;2023-12-29T13:53:04;11.32;;;1.70;;
26718;SDS011;14326;50.794;6.060;2023-12-29T13:55:31;5.97;;;1.42;;
26718;SDS011;14326;50.794;6.060;2023-12-29T13:57:57;4.32;;;1.23;;
26718;SDS011;14326;50.794;6.060;2023-12-29T14:00:24;9.32;;;1.65;;
26718;SDS011;14326;50.794;6.060;2023-12-29T14:02:57;3.33;;;1.07;;
26718;SDS011;14326;50.794;6.060;2023-12-29T14:05:31;3.80;;;1.40;;
26718;SDS011;14326;50.794;6.060;2023-12-29T14:07:59;7.25;;;1.35;;
26718;SDS011;14326;50.794;6.060;2023-12-29T14:10:28;3.60;;;1.13;;
26718;SDS011;14326;50.794;6.060;2023-12-29T14:12:55;9.98;;;1.60;;
26718;SDS011;14326;50.794;6.060;2023-12-29T14:15:21;6.32;;;1.23;;
26718;SDS011;14326;50.794;6.060;2023-12-29T14:17:47;5.35;;;1.30;;
26718;SDS011;14326;50.794;6.060;2023-12-29T14:20:18;3.55;;;1.20;;
26718;SDS011;14326;50.794;6.060;2023-12-29T14:23:02;6.07;;;1.15;;
26718;SDS011;14326;50.794;6.060;2023-12-29T14:25:28;6.88;;;1.10;;
26718;SDS011;14326;50.794;6.060;2023-12-29T14:27:56;3.08;;;1.00;;
26718;SDS011;14326;50.794;6.060;2023-12-29T14:30:22;5.50;;;1.20;;
26718;SDS011;14326;50.794;6.060;2023-12-29T14:32:49;7.47;;;1.48;;
26718;SDS011;14326;50.794;6.060;2023-12-29T14:35:15;7.40;;;1.23;;
26718;SDS011;14326;50.794;6.060;2023-12-29T14:37:42;5.43;;;1.20;;
26718;SDS011;14326;50.794;6.060;2023-12-29T14:40:11;4.43;;;1.05;;
26718;SDS011;14326;50.794;6.060;2023-12-29T14:42:38;3.60;;;0.97;;
26718;SDS011;14326;50.794;6.060;2023-12-29T14:45:05;5.28;;;1.00;;
26718;SDS011;14326;50.794;6.060;2023-12-29T14:47:32;1.80;;;0.90;;
26718;SDS011;14326;50.794;6.060;2023-12-29T14:50:00;7.30;;;1.20;;